Time;durP1;ratioP1;P1;durP2;ratioP2;P2;SDS_P1;SDS_P2;PMS_P1;PMS_P2;Temp;Humidity;BMP_temperature;BMP_pressure;BME280_temperature;BME280_humidity;BME280_pressure;Samples;Min_cycle;Max_cycle;Signal;HPM_P1;HPM_P2
2021/12/28 00:01:24;;;;;;;35.15;16.65;;;4.70;99.90;;;;;;5032165;28;20470;-77
2021/12/28 00:03:51;;;;;;;39.08;17.85;;;4.70;99.90;;;;;;5024316;28;20092;-75
2021/12/28 00:06:17;;;;;;;47.45;20.00;;;4.80;99.90;;;;;;5013560;28;20060;-75
2021/12/28 00:08:44;;;;;;;43.35;19.60;;;4.80;99.90;;;;;;5014114;28;20045;-75
2021/12/28 00:11:10;;;;;;;45.13;19.48;;;4.80;99.90;;;;;;5013527;28;20079;-76
2021/12/28 00:13:37;;;;;;;41.42;19.15;;;4.80;99.90;;;;;;5013791;28;20045;-76
2021/12/28 00:18:30;;;;;;;42.15;17.98;;;4.80;99.90;;;;;;5014238;28;20045;-76
2021/12/28 00:20:58;;;;;;;44.22;19.45;;;4.80;99.90;;;;;;5012913;28;20545;-78
2021/12/28 00:23:32;;;;;;;39.08;19.00;;;4.80;99.90;;;;;;5017074;28;20095;-75
2021/12/28 00:25:59;;;;;;;45.20;20.08;;;4.80;99.90;;;;;;5020902;28;20061;-75
2021/12/28 00:28:25;;;;;;;43.10;19.42;;;4.80;99.90;;;;;;5013307;28;20045;-76
2021/12/28 00:30:52;;;;;;;45.58;18.88;;;4.80;99.90;;;;;;5030537;28;20176;-76
2021/12/28 00:33:20;;;;;;;52.88;21.70;;;4.70;99.90;;;;;;5019661;28;20448;-76
2021/12/28 00:35:46;;;;;;;48.78;21.85;;;4.70;99.90;;;;;;5006678;28;20065;-77
2021/12/28 00:38:21;;;;;;;55.55;22.08;;;4.70;99.90;;;;;;5022390;28;20056;-75
2021/12/28 00:40:49;;;;;;;54.88;21.58;;;4.80;99.90;;;;;;5010555;28;20057;-75
2021/12/28 00:43:15;;;;;;;51.65;21.05;;;4.80;99.90;;;;;;5021334;28;20490;-76
2021/12/28 00:45:41;;;;;;;59.15;21.38;;;4.80;99.90;;;;;;4965651;28;20060;-76
2021/12/28 00:48:06;;;;;;;60.45;22.70;;;4.80;99.90;;;;;;5013215;28;20143;-75
2021/12/28 00:50:32;;;;;;;58.88;23.05;;;5.20;99.90;;;;;;5013802;28;20049;-80
2021/12/28 00:52:58;;;;;;;61.05;23.00;;;4.80;99.90;;;;;;5011839;28;20495;-77
2021/12/28 00:55:25;;;;;;;66.10;25.23;;;4.80;99.90;;;;;;5014220;28;20041;-76
2021/12/28 00:57:52;;;;;;;69.47;26.60;;;4.80;99.90;;;;;;4997392;28;20128;-81
2021/12/28 01:00:27;;;;;;;69.53;25.65;;;4.80;99.90;;;;;;5013529;28;20060;-74
2021/12/28 01:02:55;;;;;;;73.25;25.02;;;4.80;99.90;;;;;;5013668;28;20380;-81
2021/12/28 01:05:22;;;;;;;75.53;26.05;;;4.90;99.90;;;;;;5023993;28;20106;-74
2021/12/28 01:07:48;;;;;;;75.50;26.20;;;4.90;99.90;;;;;;5015484;28;20064;-74
2021/12/28 01:10:17;;;;;;;81.80;26.88;;;4.90;99.90;;;;;;5013472;28;20045;-73
2021/12/28 01:12:44;;;;;;;73.50;27.50;;;5.30;99.90;;;;;;5013759;28;20065;-74
2021/12/28 01:15:11;;;;;;;77.65;27.38;;;5.30;99.90;;;;;;5013491;28;20053;-74
2021/12/28 01:17:37;;;;;;;82.30;28.38;;;5.80;99.90;;;;;;5014736;28;20053;-74
2021/12/28 01:20:07;;;;;;;81.60;27.67;;;5.30;99.90;;;;;;5050706;28;20047;-74
2021/12/28 01:22:33;;;;;;;88.95;28.13;;;4.90;99.90;;;;;;5016378;28;20489;-76
2021/12/28 01:24:59;;;;;;;;;;;4.90;99.90;;;;;;5051060;28;20037;-74
2021/12/28 01:27:25;;;;;;;96.70;29.58;;;4.90;99.90;;;;;;5012537;28;19925;-78
2021/12/28 01:29:52;;;;;;;96.78;30.95;;;5.00;99.90;;;;;;5030533;28;20492;-75
2021/12/28 01:32:17;;;;;;;106.60;31.58;;;5.00;99.90;;;;;;5020228;28;20120;-74
2021/12/28 01:34:44;;;;;;;106.43;30.25;;;5.00;99.90;;;;;;5032739;28;20049;-73
2021/12/28 01:37:10;;;;;;;;;;;5.00;99.90;;;;;;5032681;28;20145;-74
2021/12/28 01:39:36;;;;;;;115.30;30.90;;;5.00;99.90;;;;;;5050647;28;20328;-75
2021/12/28 01:42:05;;;;;;;113.47;31.33;;;5.10;99.90;;;;;;5016179;28;20045;-76
2021/12/28 01:44:31;;;;;;;117.43;31.83;;;5.10;99.90;;;;;;5017378;28;20084;-76
2021/12/28 01:46:57;;;;;;;112.10;31.05;;;5.10;99.90;;;;;;5035755;28;20077;-84
2021/12/28 01:49:23;;;;;;;119.10;31.83;;;5.10;99.90;;;;;;5036999;28;20406;-75
2021/12/28 01:51:49;;;;;;;125.40;33.85;;;5.30;99.90;;;;;;5042761;28;20118;-73
2021/12/28 01:54:15;;;;;;;;;;;5.10;99.90;;;;;;5017232;28;20049;-74
2021/12/28 01:56:44;;;;;;;135.82;31.65;;;5.10;99.90;;;;;;5016982;28;19921;-75
2021/12/28 01:59:12;;;;;;;128.18;31.20;;;5.10;99.90;;;;;;5000436;28;20111;-75
2021/12/28 02:01:39;;;;;;;129.05;31.55;;;5.10;99.90;;;;;;5000797;28;20060;-74
2021/12/28 02:04:21;;;;;;;141.18;33.42;;;5.10;99.90;;;;;;5034402;28;20368;-75
2021/12/28 02:06:48;;;;;;;131.27;33.17;;;5.10;99.90;;;;;;5016786;28;20041;-74
2021/12/28 02:09:14;;;;;;;142.02;34.00;;;5.10;99.90;;;;;;4999988;28;20056;-76
2021/12/28 02:11:40;;;;;;;;;;;5.10;99.90;;;;;;5001013;28;20052;-74
2021/12/28 02:14:08;;;;;;;167.75;34.50;;;5.20;99.90;;;;;;5016499;28;19959;-74
2021/12/28 02:16:38;;;;;;;145.85;33.25;;;5.10;99.90;;;;;;5016709;28;20049;-74
2021/12/28 02:19:05;;;;;;;161.90;35.03;;;5.40;99.90;;;;;;5029118;28;20060;-74
2021/12/28 02:21:31;;;;;;;160.73;35.20;;;5.10;99.90;;;;;;5035666;28;20044;-75
2021/12/28 02:24:02;;;;;;;136.00;32.35;;;5.00;99.90;;;;;;5035815;28;20493;-76
2021/12/28 02:26:29;;;;;;;136.55;32.65;;;5.20;99.90;;;;;;5036292;28;20053;-76
2021/12/28 02:28:55;;;;;;;156.55;32.80;;;5.00;99.90;;;;;;5036295;28;20041;-76
2021/12/28 02:31:21;;;;;;;136.98;32.45;;;5.00;99.90;;;;;;5036161;28;20086;-74
2021/12/28 02:33:48;;;;;;;137.45;32.40;;;5.00;99.90;;;;;;5036749;28;20045;-74
2021/12/28 02:36:15;;;;;;;142.00;32.55;;;5.10;99.90;;;;;;5034621;28;20435;-76
2021/12/28 02:38:41;;;;;;;174.52;34.55;;;5.00;99.90;;;;;;5036190;28;20059;-73
2021/12/28 02:41:09;;;;;;;147.40;33.97;;;5.00;99.90;;;;;;5015434;28;20490;-74
2021/12/28 02:43:35;;;;;;;154.05;34.10;;;5.00;99.90;;;;;;5032811;28;20060;-74
2021/12/28 02:46:05;;;;;;;145.82;33.15;;;5.00;99.90;;;;;;5000126;28;20049;-82
2021/12/28 02:48:32;;;;;;;142.00;32.72;;;5.00;99.90;;;;;;5015573;28;20061;-75
2021/12/28 02:51:02;;;;;;;133.70;32.53;;;5.10;99.90;;;;;;5015052;28;20069;-74
2021/12/28 02:53:28;;;;;;;136.00;33.13;;;5.10;99.90;;;;;;5015994;28;20107;-74
2021/12/28 02:55:55;;;;;;;153.90;34.75;;;5.10;99.90;;;;;;5016256;28;20091;-76
2021/12/28 02:58:29;;;;;;;134.25;32.47;;;5.10;99.90;;;;;;5027507;28;20060;-77
2021/12/28 03:01:06;;;;;;;140.57;33.28;;;5.10;99.90;;;;;;5016076;28;20085;-74
2021/12/28 03:03:33;;;;;;;168.13;35.47;;;5.10;99.90;;;;;;5016218;28;20052;-74
2021/12/28 03:06:00;;;;;;;174.00;37.17;;;5.30;99.90;;;;;;4999187;28;20084;-74
2021/12/28 03:08:28;;;;;;;165.95;34.13;;;5.10;99.90;;;;;;5014919;28;20053;-74
2021/12/28 03:10:55;;;;;;;182.15;36.35;;;5.10;99.90;;;;;;5015827;28;20115;-76
2021/12/28 03:13:35;;;;;;;189.60;35.42;;;5.10;99.90;;;;;;5015297;28;20061;-74
2021/12/28 03:16:02;;;;;;;192.65;34.10;;;5.00;99.90;;;;;;4999790;28;20050;-74
2021/12/28 03:18:28;;;;;;;230.32;38.50;;;4.90;99.90;;;;;;4999263;28;20056;-74
2021/12/28 03:20:54;;;;;;;267.90;39.50;;;4.90;99.90;;;;;;5002988;28;20048;-75
2021/12/28 03:23:21;;;;;;;;;;;5.00;99.90;;;;;;5015453;28;20045;-74
2021/12/28 03:25:47;;;;;;;384.63;41.28;;;4.90;99.90;;;;;;5015847;28;19925;-73
2021/12/28 03:28:19;;;;;;;424.00;48.65;;;4.90;99.90;;;;;;5014152;28;20049;-74
2021/12/28 03:30:46;;;;;;;488.35;51.88;;;5.00;99.90;;;;;;5015272;28;20054;-75
2021/12/28 03:33:12;;;;;;;410.58;46.53;;;5.00;99.90;;;;;;5032434;28;20049;-74
2021/12/28 03:35:38;;;;;;;392.83;46.85;;;5.00;99.90;;;;;;5015193;28;20128;-81
2021/12/28 03:38:04;;;;;;;448.35;50.13;;;5.10;99.90;;;;;;5014967;28;20050;-74
2021/12/28 03:40:30;;;;;;;;;;;5.20;99.90;;;;;;5032908;28;20049;-74
2021/12/28 03:42:56;;;;;;;417.95;47.25;;;5.40;99.90;;;;;;4998714;28;20286;-74
2021/12/28 03:45:22;;;;;;;494.38;50.30;;;5.20;99.90;;;;;;5032324;28;20143;-74
2021/12/28 03:47:47;;;;;;;460.92;49.08;;;5.20;99.90;;;;;;5014467;28;20061;-74
2021/12/28 03:50:14;;;;;;;492.88;52.20;;;5.20;99.90;;;;;;5011920;28;20053;-76
2021/12/28 03:52:41;;;;;;;453.95;46.30;;;5.10;99.90;;;;;;5014062;28;20181;-74
2021/12/28 03:55:09;;;;;;;437.13;48.47;;;5.20;99.90;;;;;;5015109;28;20042;-74
2021/12/28 03:57:35;;;;;;;390.63;44.42;;;5.20;99.90;;;;;;5014812;28;20053;-74
2021/12/28 04:00:01;;;;;;;521.53;50.40;;;5.20;99.90;;;;;;5035091;28;20091;-74
2021/12/28 04:02:26;;;;;;;409.92;44.67;;;5.10;99.90;;;;;;5034336;28;20046;-73
2021/12/28 04:04:52;;;;;;;442.58;43.97;;;5.20;99.90;;;;;;5034707;28;20052;-74
2021/12/28 04:07:20;;;;;;;358.63;40.13;;;5.10;99.90;;;;;;5029816;28;20049;-74
2021/12/28 04:12:15;;;;;;;331.33;40.58;;;5.00;99.90;;;;;;5017958;28;20053;-74
2021/12/28 04:14:41;;;;;;;299.52;36.97;;;5.30;99.90;;;;;;4998199;28;20055;-75
2021/12/28 04:17:06;;;;;;;338.60;38.65;;;5.00;99.90;;;;;;4998424;28;20072;-74
2021/12/28 04:19:32;;;;;;;346.20;37.75;;;5.00;99.90;;;;;;5014268;28;20096;-74
2021/12/28 04:21:58;;;;;;;360.63;39.30;;;5.00;99.90;;;;;;5014103;28;20049;-74
2021/12/28 04:24:24;;;;;;;344.95;39.88;;;5.00;99.90;;;;;;5013854;28;20049;-76
2021/12/28 04:26:49;;;;;;;288.30;36.30;;;5.00;99.90;;;;;;5032560;28;20128;-73
2021/12/28 04:29:15;;;;;;;317.17;39.63;;;5.00;99.90;;;;;;5051560;28;20131;-83
2021/12/28 04:31:41;;;;;;;341.50;38.42;;;5.00;99.90;;;;;;5030965;28;20083;-74
2021/12/28 04:34:07;;;;;;;321.40;38.25;;;5.00;99.90;;;;;;5019305;28;20049;-75
2021/12/28 04:36:33;;;;;;;300.42;37.08;;;5.00;99.90;;;;;;5013315;28;20091;-74
2021/12/28 04:38:59;;;;;;;304.83;35.95;;;5.00;99.90;;;;;;4997683;28;20521;-75
2021/12/28 04:41:24;;;;;;;301.80;36.67;;;5.00;99.90;;;;;;5013484;28;20550;-75
2021/12/28 04:43:50;;;;;;;319.45;39.20;;;5.10;99.90;;;;;;4998287;28;20111;-74
2021/12/28 04:46:16;;;;;;;283.27;36.40;;;5.10;99.90;;;;;;5013874;28;20053;-79
2021/12/28 04:48:42;;;;;;;348.80;40.42;;;5.10;99.90;;;;;;5031210;28;20475;-73
2021/12/28 04:51:08;;;;;;;266.35;35.42;;;5.00;99.90;;;;;;5013251;28;20064;-74
2021/12/28 04:53:34;;;;;;;317.95;39.33;;;5.10;99.90;;;;;;5013013;28;20048;-73
2021/12/28 04:55:59;;;;;;;;;;;5.10;99.90;;;;;;5014478;28;20057;-74
2021/12/28 04:58:26;;;;;;;289.52;33.40;;;5.10;99.90;;;;;;5030870;28;20255;-73
2021/12/28 05:00:52;;;;;;;;;;;5.10;99.90;;;;;;5028047;28;20255;-75
2021/12/28 05:03:19;;;;;;;240.05;34.80;;;5.00;99.90;;;;;;5033617;28;19931;-82
2021/12/28 05:05:48;;;;;;;188.30;31.55;;;5.10;99.90;;;;;;5051072;28;20078;-74
2021/12/28 05:08:14;;;;;;;180.48;30.48;;;5.00;99.90;;;;;;5033110;28;20041;-76
2021/12/28 05:10:41;;;;;;;;;;;5.10;99.90;;;;;;5033909;28;20095;-74
2021/12/28 05:13:07;;;;;;;145.93;28.75;;;5.00;99.90;;;;;;5032722;28;19921;-74
2021/12/28 05:15:34;;;;;;;143.32;29.73;;;5.30;99.90;;;;;;5013609;28;20140;-76
2021/12/28 05:18:00;;;;;;;147.68;28.73;;;5.20;99.90;;;;;;5013942;28;20084;-76
2021/12/28 05:20:26;;;;;;;;;;;5.00;99.90;;;;;;5014504;28;20124;-74
2021/12/28 05:22:51;;;;;;;135.35;27.13;;;5.00;99.90;;;;;;5017153;28;20032;-74
2021/12/28 05:25:17;;;;;;;131.27;28.05;;;5.10;99.90;;;;;;5017856;28;20081;-75
2021/12/28 05:27:43;;;;;;;123.95;25.95;;;5.50;99.90;;;;;;5016727;28;20081;-74
2021/12/28 05:30:10;;;;;;;140.65;29.00;;;5.20;99.90;;;;;;5001754;28;20045;-73
2021/12/28 05:32:36;;;;;;;129.18;27.13;;;5.10;99.90;;;;;;5034712;28;20057;-74
2021/12/28 05:35:03;;;;;;;;;;;5.30;99.90;;;;;;5021578;28;20391;-75
2021/12/28 05:37:29;;;;;;;134.33;27.43;;;5.10;99.90;;;;;;5016779;28;19979;-74
2021/12/28 05:39:54;;;;;;;117.00;25.30;;;5.10;99.90;;;;;;5017445;28;20422;-75
2021/12/28 05:42:20;;;;;;;118.40;26.25;;;5.10;99.90;;;;;;5017239;28;20041;-74
2021/12/28 05:44:46;;;;;;;118.70;25.65;;;5.10;99.90;;;;;;5017208;28;20072;-74
2021/12/28 05:47:12;;;;;;;113.22;24.70;;;5.20;99.90;;;;;;5017542;28;20057;-76
2021/12/28 05:49:39;;;;;;;122.55;26.77;;;5.10;99.90;;;;;;5016657;28;20057;-76
2021/12/28 05:52:05;;;;;;;99.38;24.13;;;5.10;99.90;;;;;;5016517;28;20060;-74
2021/12/28 05:54:31;;;;;;;95.25;24.13;;;5.00;99.90;;;;;;5016338;28;20115;-73
2021/12/28 05:56:57;;;;;;;101.30;25.20;;;5.10;99.90;;;;;;5034600;28;20053;-75
2021/12/28 05:59:22;;;;;;;109.88;24.38;;;5.10;99.90;;;;;;5034672;28;20077;-74
2021/12/28 06:01:48;;;;;;;90.20;23.73;;;5.10;99.90;;;;;;5045695;28;20052;-74
2021/12/28 06:04:14;;;;;;;86.25;23.20;;;5.10;99.90;;;;;;5036835;28;20041;-75
2021/12/28 06:06:40;;;;;;;93.15;23.20;;;5.00;99.90;;;;;;5019279;28;20041;-76
2021/12/28 06:09:06;;;;;;;85.32;21.85;;;5.00;99.90;;;;;;5054151;28;20474;-76
2021/12/28 06:11:32;;;;;;;84.10;22.85;;;5.00;99.90;;;;;;5053557;28;20136;-76
2021/12/28 06:13:58;;;;;;;79.20;21.58;;;5.00;99.90;;;;;;5036815;28;20143;-75
2021/12/28 06:16:23;;;;;;;84.97;21.95;;;5.00;99.90;;;;;;5054425;28;20060;-74
2021/12/28 06:18:49;;;;;;;86.40;22.55;;;5.00;99.90;;;;;;5029440;28;20075;-73
2021/12/28 06:21:15;;;;;;;81.20;21.83;;;5.00;99.90;;;;;;5000063;28;20049;-74
2021/12/28 06:23:40;;;;;;;77.20;20.83;;;5.50;99.90;;;;;;5046366;28;20049;-74
2021/12/28 06:26:06;;;;;;;77.68;21.15;;;5.00;99.90;;;;;;5054140;28;20049;-76
2021/12/28 06:28:32;;;;;;;74.25;21.33;;;5.00;99.90;;;;;;5035988;28;20533;-74
2021/12/28 06:30:58;;;;;;;76.43;22.05;;;5.00;99.90;;;;;;5019652;28;20092;-74
2021/12/28 06:33:24;;;;;;;75.70;20.75;;;5.10;99.90;;;;;;5036243;28;20053;-74
2021/12/28 06:35:50;;;;;;;73.95;20.30;;;5.30;99.90;;;;;;5035557;28;20052;-74
2021/12/28 06:38:18;;;;;;;69.88;21.10;;;5.10;99.90;;;;;;5035415;28;20052;-74
2021/12/28 06:40:44;;;;;;;60.50;18.67;;;5.30;99.90;;;;;;5035299;28;20049;-76
2021/12/28 06:43:10;;;;;;;62.38;18.98;;;5.10;99.90;;;;;;5035635;28;20041;-74
2021/12/28 06:45:36;;;;;;;63.78;18.48;;;5.20;99.90;;;;;;5015505;28;20045;-74
2021/12/28 06:48:02;;;;;;;54.90;17.65;;;5.20;99.90;;;;;;5033725;28;20049;-75
2021/12/28 06:50:28;;;;;;;52.92;18.25;;;5.20;99.90;;;;;;5015708;28;20061;-74
2021/12/28 06:52:54;;;;;;;56.25;18.50;;;5.20;99.90;;;;;;5014745;28;20053;-74
2021/12/28 06:55:20;;;;;;;44.50;16.25;;;5.20;99.90;;;;;;5016197;28;20056;-74
2021/12/28 06:57:46;;;;;;;49.70;16.85;;;5.20;99.90;;;;;;4998941;28;20088;-74
2021/12/28 07:00:15;;;;;;;45.05;16.98;;;5.20;99.90;;;;;;4999914;28;20053;-74
2021/12/28 07:02:41;;;;;;;43.97;16.30;;;5.20;99.90;;;;;;5015335;28;20052;-74
2021/12/28 07:05:07;;;;;;;;;;;5.20;99.90;;;;;;5021738;28;20049;-74
2021/12/28 07:07:33;;;;;;;39.58;14.35;;;5.20;99.90;;;;;;4982421;28;19928;-82
2021/12/28 07:09:59;;;;;;;;;;;5.20;99.90;;;;;;5015995;28;20041;-75
2021/12/28 07:12:25;;;;;;;35.33;13.25;;;5.20;99.90;;;;;;5015721;28;19925;-74
2021/12/28 07:14:51;;;;;;;39.03;14.88;;;5.20;99.90;;;;;;5032013;28;20053;-75
2021/12/28 07:17:17;;;;;;;43.10;13.75;;;5.20;99.90;;;;;;5015916;28;20052;-74
2021/12/28 07:19:42;;;;;;;33.47;13.27;;;5.10;99.90;;;;;;4998925;28;20046;-75
2021/12/28 07:22:08;;;;;;;35.20;13.43;;;5.20;99.90;;;;;;5046704;28;20049;-74
2021/12/28 07:24:34;;;;;;;33.67;12.73;;;5.20;99.90;;;;;;5035205;28;20041;-82
2021/12/28 07:27:00;;;;;;;38.50;12.68;;;5.10;99.90;;;;;;5021496;28;20124;-74
2021/12/28 07:29:25;;;;;;;37.17;13.43;;;5.30;99.90;;;;;;5048656;28;20053;-74
2021/12/28 07:31:51;;;;;;;30.30;12.88;;;5.10;99.90;;;;;;5019932;28;20056;-76
2021/12/28 07:34:18;;;;;;;33.22;12.30;;;5.10;99.90;;;;;;5019011;28;20071;-74
2021/12/28 07:36:44;;;;;;;32.08;12.77;;;5.10;99.90;;;;;;5034275;28;20102;-74
2021/12/28 07:39:10;;;;;;;;;;;5.10;99.90;;;;;;5035351;28;20053;-73
2021/12/28 07:41:36;;;;;;;35.05;10.95;;;5.20;99.90;;;;;;5034811;28;19928;-81
2021/12/28 07:44:02;;;;;;;35.40;11.52;;;5.00;99.90;;;;;;5051831;28;20052;-74
2021/12/28 07:46:28;;;;;;;34.88;11.98;;;5.00;99.90;;;;;;5035122;28;20064;-75
2021/12/28 07:48:53;;;;;;;34.28;11.85;;;5.00;99.90;;;;;;5034242;28;20636;-76
2021/12/28 07:51:19;;;;;;;26.40;11.40;;;5.10;99.90;;;;;;5001008;28;20367;-74
2021/12/28 07:53:45;;;;;;;39.22;12.73;;;5.00;99.90;;;;;;5014645;28;20053;-74
2021/12/28 07:56:11;;;;;;;35.20;11.90;;;5.00;99.90;;;;;;5015266;28;20045;-75
2021/12/28 07:58:37;;;;;;;36.33;11.90;;;5.00;99.90;;;;;;4999032;28;20053;-79
2021/12/28 08:01:02;;;;;;;35.75;11.63;;;5.00;99.90;;;;;;5005848;28;20048;-75
2021/12/28 08:03:28;;;;;;;30.30;11.80;;;5.00;99.90;;;;;;5035209;28;20056;-74
2021/12/28 08:05:54;;;;;;;36.70;11.90;;;5.00;99.90;;;;;;5033800;28;20055;-75
2021/12/28 08:08:20;;;;;;;39.90;12.98;;;5.10;99.90;;;;;;5034360;28;20377;-75
2021/12/28 08:10:45;;;;;;;30.90;11.75;;;5.00;99.90;;;;;;5034317;28;20049;-74
2021/12/28 08:13:11;;;;;;;28.52;10.13;;;5.10;99.90;;;;;;5017447;28;20046;-80
2021/12/28 08:15:37;;;;;;;32.58;11.52;;;5.10;99.90;;;;;;5015167;28;20056;-75
2021/12/28 08:18:07;;;;;;;31.70;10.90;;;5.20;99.90;;;;;;5031157;28;20080;-76
2021/12/28 08:20:33;;;;;;;36.28;11.15;;;5.10;99.90;;;;;;5014921;28;20111;-74
2021/12/28 08:22:59;;;;;;;29.80;10.70;;;5.10;99.90;;;;;;5013738;28;20046;-74
2021/12/28 08:25:25;;;;;;;;;;;5.10;99.90;;;;;;5015560;28;20053;-74
2021/12/28 08:27:51;;;;;;;31.73;10.13;;;5.10;99.90;;;;;;5014042;28;19920;-74
2021/12/28 08:30:19;;;;;;;25.17;10.38;;;5.10;99.90;;;;;;5014987;28;20091;-74
2021/12/28 08:32:46;;;;;;;32.67;10.38;;;5.20;99.90;;;;;;5014066;28;20053;-74
2021/12/28 08:35:13;;;;;;;32.35;10.80;;;5.20;99.90;;;;;;5014934;28;20057;-75
2021/12/28 08:37:40;;;;;;;28.15;10.27;;;5.20;99.90;;;;;;5001917;28;20057;-78
2021/12/28 08:40:08;;;;;;;25.80;9.75;;;5.10;99.90;;;;;;5014501;28;20061;-75
2021/12/28 08:42:34;;;;;;;21.85;8.85;;;5.10;99.90;;;;;;5030325;28;20084;-74
2021/12/28 08:45:00;;;;;;;29.60;9.50;;;5.10;99.90;;;;;;5030923;28;20048;-77
2021/12/28 08:47:27;;;;;;;28.23;9.60;;;5.40;99.90;;;;;;5030691;28;20045;-74
2021/12/28 08:49:54;;;;;;;30.90;9.95;;;5.50;99.90;;;;;;5029352;28;20093;-75
2021/12/28 08:52:21;;;;;;;34.78;10.25;;;5.00;99.90;;;;;;5015320;28;20060;-78
2021/12/28 08:54:46;;;;;;;28.27;9.80;;;5.10;99.90;;;;;;5012386;28;20505;-74
2021/12/28 08:57:12;;;;;;;29.10;10.70;;;5.10;99.90;;;;;;5024448;28;20049;-76
2021/12/28 08:59:38;;;;;;;29.60;9.23;;;5.10;99.90;;;;;;5018112;28;20425;-74
2021/12/28 09:02:06;;;;;;;29.30;9.68;;;5.10;99.90;;;;;;4996241;28;20128;-74
2021/12/28 09:04:32;;;;;;;27.77;9.80;;;5.10;99.90;;;;;;5020554;28;20054;-78
2021/12/28 09:06:57;;;;;;;25.52;8.60;;;5.20;99.90;;;;;;5020533;28;20068;-74
2021/12/28 09:09:23;;;;;;;30.23;9.18;;;5.10;99.90;;;;;;5033190;28;20402;-74
2021/12/28 09:11:49;;;;;;;36.83;9.73;;;5.10;99.90;;;;;;5031119;28;20040;-74
2021/12/28 09:14:14;;;;;;;28.85;9.00;;;5.10;99.90;;;;;;4998789;28;20041;-74
2021/12/28 09:16:40;;;;;;;25.58;9.18;;;5.20;99.90;;;;;;5023292;28;20159;-75
2021/12/28 09:19:06;;;;;;;34.67;9.98;;;5.20;99.90;;;;;;4997326;28;20829;-74
2021/12/28 09:21:32;;;;;;;31.27;9.50;;;5.30;99.90;;;;;;5018830;28;20080;-76
2021/12/28 09:23:57;;;;;;;;;;;5.30;99.90;;;;;;5012567;28;20063;-74
2021/12/28 09:26:23;;;;;;;38.47;10.00;;;5.40;99.90;;;;;;5013638;28;20375;-74
2021/12/28 09:28:49;;;;;;;30.40;10.05;;;5.50;99.90;;;;;;5031103;28;20042;-74
2021/12/28 09:31:15;;;;;;;29.05;10.18;;;5.60;99.90;;;;;;5014398;28;20111;-73
2021/12/28 09:33:41;;;;;;;28.98;9.25;;;5.70;99.90;;;;;;5013974;28;20479;-74
2021/12/28 09:36:09;;;;;;;32.47;8.45;;;6.10;99.90;;;;;;5013164;28;20081;-73
2021/12/28 09:38:35;;;;;;;31.98;8.93;;;5.90;99.90;;;;;;5013895;28;20057;-76
2021/12/28 09:41:01;;;;;;;33.10;8.35;;;5.90;99.90;;;;;;5013475;28;20124;-73
2021/12/28 09:43:27;;;;;;;31.33;8.10;;;6.00;99.90;;;;;;4997918;28;20451;-74
2021/12/28 09:45:53;;;;;;;29.92;7.60;;;6.00;99.90;;;;;;5008680;28;20053;-76
2021/12/28 09:48:19;;;;;;;28.23;7.88;;;6.10;99.90;;;;;;5013504;28;20548;-78
2021/12/28 09:50:44;;;;;;;26.08;7.43;;;6.10;99.90;;;;;;5012137;28;20057;-76
2021/12/28 09:53:13;;;;;;;23.60;7.25;;;6.10;99.90;;;;;;5027777;28;20160;-76
2021/12/28 09:55:40;;;;;;;23.48;7.47;;;6.10;99.90;;;;;;5015438;28;20071;-74
2021/12/28 09:58:06;;;;;;;29.88;8.18;;;6.20;99.90;;;;;;5019810;28;20088;-75
2021/12/28 10:00:32;;;;;;;25.02;6.70;;;6.20;99.90;;;;;;5030535;28;20049;-77
2021/12/28 10:02:57;;;;;;;21.83;7.00;;;6.30;99.90;;;;;;5012249;28;20453;-75
2021/12/28 10:05:25;;;;;;;25.10;7.82;;;6.30;99.90;;;;;;5012946;28;20041;-74
2021/12/28 10:07:59;;;;;;;27.00;7.18;;;6.30;99.90;;;;;;5023174;28;20053;-82
2021/12/28 10:10:32;;;;;;;21.70;7.40;;;6.30;99.90;;;;;;5036363;28;20057;-76
2021/12/28 10:13:00;;;;;;;22.27;7.10;;;6.40;99.90;;;;;;5022359;28;20048;-74
2021/12/28 10:15:34;;;;;;;26.92;7.18;;;6.40;99.90;;;;;;5016090;28;20122;-76
2021/12/28 10:18:11;;;;;;;25.58;7.00;;;6.40;99.90;;;;;;5027366;28;20151;-74
2021/12/28 10:20:44;;;;;;;21.20;6.95;;;6.50;99.90;;;;;;5015743;28;20103;-81
2021/12/28 10:23:13;;;;;;;23.75;6.38;;;6.50;99.90;;;;;;5014432;28;20058;-76
2021/12/28 10:25:49;;;;;;;19.85;6.55;;;6.50;99.90;;;;;;5016010;28;20057;-75
2021/12/28 10:28:21;;;;;;;21.30;6.90;;;6.60;99.90;;;;;;5015642;28;20609;-74
2021/12/28 10:30:53;;;;;;;20.30;6.80;;;6.60;99.90;;;;;;5026229;28;20124;-74
2021/12/28 10:33:22;;;;;;;26.50;6.60;;;6.60;99.90;;;;;;5034022;28;20057;-74
2021/12/28 10:35:52;;;;;;;22.70;6.32;;;6.60;99.90;;;;;;5035081;28;20045;-74
2021/12/28 10:38:21;;;;;;;22.35;6.15;;;6.60;99.90;;;;;;5034728;28;20135;-76
2021/12/28 10:40:51;;;;;;;22.73;6.32;;;6.60;99.90;;;;;;5020934;28;20494;-74
2021/12/28 10:43:29;;;;;;;24.83;6.43;;;6.60;99.90;;;;;;5015104;28;20057;-76
2021/12/28 10:46:00;;;;;;;23.65;6.78;;;6.60;99.90;;;;;;5015627;28;20516;-82
2021/12/28 10:48:49;;;;;;;28.35;7.10;;;6.60;99.90;;;;;;5015565;28;20077;-74
2021/12/28 10:51:26;;;;;;;24.77;6.65;;;6.60;99.90;;;;;;4991864;28;20791;-74
2021/12/28 10:56:30;;;;;;;20.95;6.72;;;6.70;99.90;;;;;;4992540;28;19952;-80
2021/12/28 10:58:55;;;;;;;23.65;6.90;;;6.70;99.90;;;;;;4992481;28;20058;-82
2021/12/28 11:01:32;;;;;;;20.73;6.13;;;6.70;99.90;;;;;;4995876;28;20388;-75
2021/12/28 11:04:09;;;;;;;22.15;6.63;;;6.80;99.90;;;;;;4985330;28;20109;-80
2021/12/28 11:06:37;;;;;;;19.50;6.68;;;6.80;99.90;;;;;;4999921;28;20057;-75
2021/12/28 11:09:08;;;;;;;23.70;6.65;;;6.80;99.90;;;;;;4991615;28;20566;-74
2021/12/28 11:11:34;;;;;;;21.27;7.18;;;6.80;99.90;;;;;;4976855;28;20046;-77
2021/12/28 11:14:01;;;;;;;;;;;6.90;99.90;;;;;;4993468;28;20046;-75
2021/12/28 11:16:28;;;;;;;19.70;6.78;;;6.90;99.90;;;;;;4984155;28;19932;-75
2021/12/28 11:19:00;;;;;;;22.58;6.95;;;6.90;99.90;;;;;;4992608;28;20104;-77
2021/12/28 11:21:29;;;;;;;20.92;6.22;;;6.90;99.90;;;;;;4992058;28;20491;-75
2021/12/28 11:24:00;;;;;;;23.48;7.10;;;6.90;99.90;;;;;;4977365;28;20054;-78
2021/12/28 11:26:30;;;;;;;20.85;7.68;;;6.90;99.90;;;;;;4988716;28;20514;-80
2021/12/28 11:29:07;;;;;;;23.48;7.70;;;6.90;99.90;;;;;;4999031;28;20054;-75
2021/12/28 11:31:39;;;;;;;30.08;8.07;;;6.90;99.90;;;;;;4990656;28;20054;-75
2021/12/28 11:34:07;;;;;;;27.83;8.25;;;6.90;99.90;;;;;;4994310;28;20050;-75
2021/12/28 11:36:40;;;;;;;26.27;7.97;;;6.90;99.90;;;;;;4985520;28;20046;-75
2021/12/28 11:39:10;;;;;;;25.33;8.32;;;6.90;99.90;;;;;;4991398;28;20043;-76
2021/12/28 11:41:36;;;;;;;24.33;8.55;;;6.90;99.90;;;;;;5004454;28;20042;-76
2021/12/28 11:44:03;;;;;;;;;;;6.90;99.90;;;;;;4995369;28;20495;-75
2021/12/28 11:46:29;;;;;;;30.73;10.65;;;6.90;99.90;;;;;;4991883;28;19926;-75
2021/12/28 11:48:55;;;;;;;32.88;9.90;;;6.90;99.90;;;;;;4995335;28;20390;-75
2021/12/28 11:51:22;;;;;;;29.77;10.57;;;7.00;99.90;;;;;;5013466;28;20061;-74
2021/12/28 11:53:49;;;;;;;30.33;10.18;;;7.00;99.90;;;;;;5020782;28;20060;-75
2021/12/28 11:56:20;;;;;;;31.05;11.68;;;7.00;99.90;;;;;;5012960;28;20454;-77
2021/12/28 11:59:05;;;;;;;34.13;11.02;;;7.10;99.90;;;;;;5014545;28;20056;-75
2021/12/28 12:01:59;;;;;;;33.80;11.43;;;7.10;99.90;;;;;;5031832;28;20045;-75
2021/12/28 12:04:31;;;;;;;35.03;11.23;;;7.10;99.90;;;;;;5000759;28;20094;-76
2021/12/28 12:07:06;;;;;;;28.90;10.40;;;7.10;99.90;;;;;;5029591;28;20510;-78
2021/12/28 12:09:55;;;;;;;32.72;11.57;;;7.10;99.90;;;;;;5016198;28;20045;-78
2021/12/28 12:12:28;;;;;;;29.15;11.55;;;7.20;99.90;;;;;;5017726;28;20064;-77
2021/12/28 12:14:57;;;;;;;28.40;10.38;;;7.10;99.90;;;;;;5018296;28;20044;-74
2021/12/28 12:17:26;;;;;;;32.55;11.15;;;7.20;99.90;;;;;;5019558;28;20637;-76
2021/12/28 12:19:54;;;;;;;31.30;11.48;;;7.10;99.90;;;;;;5016907;28;20068;-80
2021/12/28 12:22:32;;;;;;;31.33;11.80;;;7.20;99.90;;;;;;5000037;28;20483;-75
2021/12/28 12:25:06;;;;;;;35.05;11.55;;;7.20;99.90;;;;;;5016192;28;20033;-77
2021/12/28 12:27:46;;;;;;;37.08;12.88;;;7.20;99.90;;;;;;5017185;28;20045;-76
2021/12/28 12:30:18;;;;;;;34.88;12.93;;;7.20;99.90;;;;;;5026714;28;20482;-78
2021/12/28 12:32:56;;;;;;;37.92;13.07;;;7.20;99.90;;;;;;5018914;28;20155;-75
2021/12/28 12:35:45;;;;;;;37.95;13.13;;;7.20;99.90;;;;;;5013980;28;20041;-75
2021/12/28 12:38:14;;;;;;;32.38;12.63;;;7.20;99.90;;;;;;5022364;28;20045;-75
2021/12/28 12:40:59;;;;;;;35.92;13.93;;;7.20;99.90;;;;;;5032358;28;20390;-74
2021/12/28 12:43:47;;;;;;;37.55;14.77;;;7.20;99.90;;;;;;5015356;28;20130;-74
2021/12/28 12:46:31;;;;;;;36.20;14.43;;;7.20;99.90;;;;;;5020479;28;20371;-76
2021/12/28 12:49:06;;;;;;;38.60;14.80;;;7.20;99.90;;;;;;5026908;28;20056;-75
2021/12/28 12:51:45;;;;;;;31.75;13.38;;;7.20;99.90;;;;;;5037766;28;20099;-76